sensor_id;sensor_type;location;lat;lon;timestamp;P1;durP1;ratioP1;P2;durP2;ratioP2
4756;SDS011;2392;52.578;13.426;2023-03-30T00:01:17;13.23;;;8.40;;
4756;SDS011;2392;52.578;13.426;2023-03-30T00:03:45;9.53;;;8.03;;
4756;SDS011;2392;52.578;13.426;2023-03-30T00:06:14;10.10;;;7.50;;
4756;SDS011;2392;52.578;13.426;2023-03-30T00:08:46;7.80;;;7.00;;
4756;SDS011;2392;52.578;13.426;2023-03-30T00:11:13;7.40;;;6.70;;
4756;SDS011;2392;52.578;13.426;2023-03-30T00:13:42;9.53;;;6.80;;
4756;SDS011;2392;52.578;13.426;2023-03-30T00:16:11;9.53;;;7.00;;
4756;SDS011;2392;52.578;13.426;2023-03-30T00:18:40;10.00;;;7.27;;
4756;SDS011;2392;52.578;13.426;2023-03-30T00:21:09;10.77;;;8.53;;
4756;SDS011;2392;52.578;13.426;2023-03-30T00:23:37;8.20;;;6.90;;
4756;SDS011;2392;52.578;13.426;2023-03-30T00:26:04;9.00;;;7.50;;
4756;SDS011;2392;52.578;13.426;2023-03-30T00:28:32;12.90;;;7.63;;
4756;SDS011;2392;52.578;13.426;2023-03-30T00:30:59;9.60;;;8.63;;
4756;SDS011;2392;52.578;13.426;2023-03-30T00:33:26;14.63;;;9.23;;
4756;SDS011;2392;52.578;13.426;2023-03-30T00:35:55;15.80;;;9.33;;
4756;SDS011;2392;52.578;13.426;2023-03-30T00:38:24;11.53;;;8.83;;
4756;SDS011;2392;52.578;13.426;2023-03-30T00:40:51;10.83;;;8.47;;
4756;SDS011;2392;52.578;13.426;2023-03-30T00:43:19;12.67;;;9.47;;
4756;SDS011;2392;52.578;13.426;2023-03-30T00:45:47;10.50;;;8.53;;
4756;SDS011;2392;52.578;13.426;2023-03-30T00:48:15;12.70;;;7.10;;
4756;SDS011;2392;52.578;13.426;2023-03-30T00:50:45;9.83;;;7.30;;
4756;SDS011;2392;52.578;13.426;2023-03-30T00:53:17;7.03;;;6.33;;
4756;SDS011;2392;52.578;13.426;2023-03-30T00:55:49;9.80;;;6.90;;
4756;SDS011;2392;52.578;13.426;2023-03-30T00:58:18;8.50;;;6.40;;
4756;SDS011;2392;52.578;13.426;2023-03-30T01:00:47;8.43;;;6.50;;
4756;SDS011;2392;52.578;13.426;2023-03-30T01:03:15;7.47;;;6.73;;
4756;SDS011;2392;52.578;13.426;2023-03-30T01:05:45;9.17;;;6.90;;
4756;SDS011;2392;52.578;13.426;2023-03-30T01:08:13;8.80;;;6.33;;
4756;SDS011;2392;52.578;13.426;2023-03-30T01:10:42;8.13;;;6.60;;
4756;SDS011;2392;52.578;13.426;2023-03-30T01:13:10;13.27;;;7.27;;
4756;SDS011;2392;52.578;13.426;2023-03-30T01:15:38;11.17;;;6.63;;
4756;SDS011;2392;52.578;13.426;2023-03-30T01:18:20;8.47;;;6.10;;
4756;SDS011;2392;52.578;13.426;2023-03-30T01:24:13;8.67;;;6.57;;
4756;SDS011;2392;52.578;13.426;2023-03-30T01:27:12;7.40;;;6.33;;
4756;SDS011;2392;52.578;13.426;2023-03-30T01:29:59;6.80;;;6.10;;
4756;SDS011;2392;52.578;13.426;2023-03-30T01:32:54;6.97;;;6.27;;
4756;SDS011;2392;52.578;13.426;2023-03-30T01:39:20;7.03;;;6.40;;
4756;SDS011;2392;52.578;13.426;2023-03-30T01:41:57;7.03;;;6.33;;
4756;SDS011;2392;52.578;13.426;2023-03-30T01:44:30;7.73;;;6.60;;
4756;SDS011;2392;52.578;13.426;2023-03-30T01:47:03;10.93;;;6.83;;
4756;SDS011;2392;52.578;13.426;2023-03-30T01:49:37;7.57;;;6.43;;
4756;SDS011;2392;52.578;13.426;2023-03-30T01:52:09;7.73;;;6.00;;
4756;SDS011;2392;52.578;13.426;2023-03-30T01:54:42;8.57;;;7.17;;
4756;SDS011;2392;52.578;13.426;2023-03-30T01:57:13;9.17;;;7.13;;
4756;SDS011;2392;52.578;13.426;2023-03-30T01:59:46;7.83;;;6.30;;
4756;SDS011;2392;52.578;13.426;2023-03-30T02:02:21;11.60;;;7.00;;
4756;SDS011;2392;52.578;13.426;2023-03-30T02:04:51;8.63;;;6.60;;
4756;SDS011;2392;52.578;13.426;2023-03-30T02:07:22;7.10;;;6.50;;
4756;SDS011;2392;52.578;13.426;2023-03-30T02:09:55;10.10;;;7.07;;
4756;SDS011;2392;52.578;13.426;2023-03-30T02:12:26;9.33;;;6.30;;
4756;SDS011;2392;52.578;13.426;2023-03-30T02:14:56;8.37;;;6.90;;
4756;SDS011;2392;52.578;13.426;2023-03-30T02:17:27;7.30;;;6.50;;
4756;SDS011;2392;52.578;13.426;2023-03-30T02:19:56;7.53;;;6.60;;
4756;SDS011;2392;52.578;13.426;2023-03-30T02:22:25;9.77;;;7.73;;
4756;SDS011;2392;52.578;13.426;2023-03-30T02:24:55;9.77;;;7.83;;
4756;SDS011;2392;52.578;13.426;2023-03-30T02:27:23;7.33;;;6.57;;
4756;SDS011;2392;52.578;13.426;2023-03-30T02:29:52;8.83;;;6.10;;
4756;SDS011;2392;52.578;13.426;2023-03-30T02:32:21;8.33;;;7.00;;
4756;SDS011;2392;52.578;13.426;2023-03-30T02:34:55;11.40;;;7.67;;
4756;SDS011;2392;52.578;13.426;2023-03-30T02:37:41;8.43;;;6.63;;
4756;SDS011;2392;52.578;13.426;2023-03-30T02:40:27;9.53;;;6.83;;
4756;SDS011;2392;52.578;13.426;2023-03-30T02:43:03;7.37;;;6.33;;
4756;SDS011;2392;52.578;13.426;2023-03-30T02:45:49;7.07;;;6.37;;
4756;SDS011;2392;52.578;13.426;2023-03-30T02:48:22;7.27;;;5.73;;
4756;SDS011;2392;52.578;13.426;2023-03-30T02:51:03;9.23;;;6.80;;
4756;SDS011;2392;52.578;13.426;2023-03-30T02:54:03;7.13;;;6.43;;
4756;SDS011;2392;52.578;13.426;2023-03-30T02:57:01;7.47;;;5.93;;
4756;SDS011;2392;52.578;13.426;2023-03-30T02:59:34;13.13;;;7.17;;
4756;SDS011;2392;52.578;13.426;2023-03-30T03:02:07;8.00;;;6.53;;
4756;SDS011;2392;52.578;13.426;2023-03-30T03:04:38;8.27;;;6.97;;
4756;SDS011;2392;52.578;13.426;2023-03-30T03:07:24;11.73;;;6.30;;
4756;SDS011;2392;52.578;13.426;2023-03-30T03:09:52;7.00;;;5.93;;
4756;SDS011;2392;52.578;13.426;2023-03-30T03:12:21;7.37;;;6.67;;
4756;SDS011;2392;52.578;13.426;2023-03-30T03:14:48;6.00;;;5.40;;
4756;SDS011;2392;52.578;13.426;2023-03-30T03:17:16;6.67;;;5.63;;
4756;SDS011;2392;52.578;13.426;2023-03-30T03:19:47;6.90;;;5.97;;
4756;SDS011;2392;52.578;13.426;2023-03-30T03:22:16;8.13;;;6.30;;
4756;SDS011;2392;52.578;13.426;2023-03-30T03:24:44;6.60;;;6.00;;
4756;SDS011;2392;52.578;13.426;2023-03-30T03:27:39;11.30;;;6.20;;
4756;SDS011;2392;52.578;13.426;2023-03-30T03:30:12;8.50;;;5.93;;
4756;SDS011;2392;52.578;13.426;2023-03-30T03:32:45;8.23;;;6.20;;
4756;SDS011;2392;52.578;13.426;2023-03-30T03:35:12;6.73;;;5.90;;
4756;SDS011;2392;52.578;13.426;2023-03-30T03:37:40;6.50;;;5.90;;
4756;SDS011;2392;52.578;13.426;2023-03-30T03:40:07;8.77;;;6.00;;
4756;SDS011;2392;52.578;13.426;2023-03-30T03:42:36;11.57;;;6.70;;
4756;SDS011;2392;52.578;13.426;2023-03-30T03:45:10;7.43;;;6.60;;
4756;SDS011;2392;52.578;13.426;2023-03-30T03:47:58;8.23;;;6.70;;
4756;SDS011;2392;52.578;13.426;2023-03-30T03:50:55;8.90;;;7.70;;
4756;SDS011;2392;52.578;13.426;2023-03-30T03:53:25;9.53;;;6.07;;
4756;SDS011;2392;52.578;13.426;2023-03-30T03:55:58;7.23;;;6.53;;
4756;SDS011;2392;52.578;13.426;2023-03-30T03:58:26;9.07;;;6.80;;
4756;SDS011;2392;52.578;13.426;2023-03-30T04:00:57;14.73;;;7.93;;
4756;SDS011;2392;52.578;13.426;2023-03-30T04:03:25;8.57;;;7.07;;
4756;SDS011;2392;52.578;13.426;2023-03-30T04:05:53;13.50;;;7.30;;
4756;SDS011;2392;52.578;13.426;2023-03-30T04:08:20;10.50;;;7.20;;
4756;SDS011;2392;52.578;13.426;2023-03-30T04:10:47;14.13;;;7.47;;
4756;SDS011;2392;52.578;13.426;2023-03-30T04:13:43;9.37;;;6.67;;
4756;SDS011;2392;52.578;13.426;2023-03-30T04:16:18;8.90;;;6.80;;
4756;SDS011;2392;52.578;13.426;2023-03-30T04:19:05;8.73;;;7.03;;
4756;SDS011;2392;52.578;13.426;2023-03-30T04:21:53;7.53;;;6.73;;
4756;SDS011;2392;52.578;13.426;2023-03-30T04:24:45;10.40;;;7.10;;
4756;SDS011;2392;52.578;13.426;2023-03-30T04:27:32;7.47;;;6.70;;
4756;SDS011;2392;52.578;13.426;2023-03-30T04:30:28;8.93;;;7.20;;
4756;SDS011;2392;52.578;13.426;2023-03-30T04:33:17;9.30;;;6.93;;
4756;SDS011;2392;52.578;13.426;2023-03-30T04:36:10;9.97;;;6.67;;
4756;SDS011;2392;52.578;13.426;2023-03-30T04:39:00;11.40;;;7.03;;
4756;SDS011;2392;52.578;13.426;2023-03-30T04:41:53;11.00;;;6.80;;
4756;SDS011;2392;52.578;13.426;2023-03-30T04:44:46;10.60;;;7.53;;
4756;SDS011;2392;52.578;13.426;2023-03-30T04:47:42;7.60;;;6.87;;
4756;SDS011;2392;52.578;13.426;2023-03-30T04:50:29;8.27;;;6.83;;
4756;SDS011;2392;52.578;13.426;2023-03-30T04:53:22;7.67;;;6.90;;
4756;SDS011;2392;52.578;13.426;2023-03-30T04:56:08;8.50;;;7.70;;
4756;SDS011;2392;52.578;13.426;2023-03-30T04:58:47;8.50;;;6.87;;
4756;SDS011;2392;52.578;13.426;2023-03-30T05:01:32;6.87;;;6.00;;
4756;SDS011;2392;52.578;13.426;2023-03-30T05:04:16;8.70;;;6.87;;
4756;SDS011;2392;52.578;13.426;2023-03-30T05:06:59;8.20;;;6.30;;
4756;SDS011;2392;52.578;13.426;2023-03-30T05:09:42;7.97;;;6.60;;
4756;SDS011;2392;52.578;13.426;2023-03-30T05:12:09;6.70;;;5.87;;
4756;SDS011;2392;52.578;13.426;2023-03-30T05:14:45;7.13;;;6.43;;
4756;SDS011;2392;52.578;13.426;2023-03-30T05:17:31;9.60;;;6.30;;
4756;SDS011;2392;52.578;13.426;2023-03-30T05:20:20;8.40;;;5.60;;
4756;SDS011;2392;52.578;13.426;2023-03-30T05:23:12;6.90;;;6.07;;
4756;SDS011;2392;52.578;13.426;2023-03-30T05:26:02;8.57;;;6.20;;
4756;SDS011;2392;52.578;13.426;2023-03-30T05:28:37;8.93;;;6.87;;
4756;SDS011;2392;52.578;13.426;2023-03-30T05:31:16;13.70;;;6.47;;
4756;SDS011;2392;52.578;13.426;2023-03-30T05:34:13;10.03;;;6.30;;
4756;SDS011;2392;52.578;13.426;2023-03-30T05:36:49;8.00;;;6.70;;
4756;SDS011;2392;52.578;13.426;2023-03-30T05:39:35;7.17;;;6.30;;
4756;SDS011;2392;52.578;13.426;2023-03-30T05:42:16;10.40;;;6.30;;
4756;SDS011;2392;52.578;13.426;2023-03-30T05:45:01;13.10;;;6.63;;
4756;SDS011;2392;52.578;13.426;2023-03-30T05:47:54;8.23;;;5.93;;
4756;SDS011;2392;52.578;13.426;2023-03-30T05:50:53;7.10;;;6.40;;
4756;SDS011;2392;52.578;13.426;2023-03-30T05:53:31;8.17;;;6.37;;
4756;SDS011;2392;52.578;13.426;2023-03-30T05:56:19;9.70;;;6.30;;
4756;SDS011;2392;52.578;13.426;2023-03-30T05:59:13;9.77;;;6.47;;
4756;SDS011;2392;52.578;13.426;2023-03-30T06:02:13;9.30;;;7.30;;
4756;SDS011;2392;52.578;13.426;2023-03-30T06:04:43;10.80;;;6.47;;
4756;SDS011;2392;52.578;13.426;2023-03-30T06:07:10;10.97;;;6.80;;
4756;SDS011;2392;52.578;13.426;2023-03-30T06:09:37;7.17;;;6.57;;
4756;SDS011;2392;52.578;13.426;2023-03-30T06:12:18;7.90;;;6.13;;
4756;SDS011;2392;52.578;13.426;2023-03-30T06:14:45;9.33;;;6.77;;
4756;SDS011;2392;52.578;13.426;2023-03-30T06:17:44;6.40;;;5.63;;
4756;SDS011;2392;52.578;13.426;2023-03-30T06:20:12;12.77;;;6.43;;
4756;SDS011;2392;52.578;13.426;2023-03-30T06:22:43;7.17;;;6.07;;
4756;SDS011;2392;52.578;13.426;2023-03-30T06:25:15;6.57;;;5.90;;
4756;SDS011;2392;52.578;13.426;2023-03-30T06:27:45;8.20;;;5.60;;
4756;SDS011;2392;52.578;13.426;2023-03-30T06:30:12;13.30;;;6.47;;
4756;SDS011;2392;52.578;13.426;2023-03-30T06:32:44;5.70;;;5.10;;
4756;SDS011;2392;52.578;13.426;2023-03-30T06:35:31;6.60;;;5.80;;
4756;SDS011;2392;52.578;13.426;2023-03-30T06:37:58;7.70;;;5.33;;
4756;SDS011;2392;52.578;13.426;2023-03-30T06:40:26;5.77;;;5.13;;
4756;SDS011;2392;52.578;13.426;2023-03-30T06:42:56;7.67;;;6.10;;
4756;SDS011;2392;52.578;13.426;2023-03-30T06:45:25;8.50;;;5.80;;
4756;SDS011;2392;52.578;13.426;2023-03-30T06:47:53;8.50;;;6.27;;
4756;SDS011;2392;52.578;13.426;2023-03-30T06:50:21;9.20;;;6.00;;
4756;SDS011;2392;52.578;13.426;2023-03-30T06:52:57;7.63;;;6.40;;
4756;SDS011;2392;52.578;13.426;2023-03-30T06:55:28;7.83;;;5.40;;
4756;SDS011;2392;52.578;13.426;2023-03-30T06:57:57;7.80;;;5.20;;
4756;SDS011;2392;52.578;13.426;2023-03-30T07:00:24;6.03;;;5.10;;
4756;SDS011;2392;52.578;13.426;2023-03-30T07:03:10;14.43;;;6.00;;
4756;SDS011;2392;52.578;13.426;2023-03-30T07:06:00;7.40;;;5.57;;
4756;SDS011;2392;52.578;13.426;2023-03-30T07:08:33;8.03;;;5.00;;
4756;SDS011;2392;52.578;13.426;2023-03-30T07:11:01;6.27;;;5.63;;
4756;SDS011;2392;52.578;13.426;2023-03-30T07:13:35;5.40;;;4.93;;
4756;SDS011;2392;52.578;13.426;2023-03-30T07:16:02;7.33;;;5.73;;
4756;SDS011;2392;52.578;13.426;2023-03-30T07:18:31;8.50;;;5.90;;
4756;SDS011;2392;52.578;13.426;2023-03-30T07:20:58;7.90;;;5.63;;
4756;SDS011;2392;52.578;13.426;2023-03-30T07:23:29;6.10;;;5.47;;
4756;SDS011;2392;52.578;13.426;2023-03-30T07:25:56;10.90;;;5.53;;
4756;SDS011;2392;52.578;13.426;2023-03-30T07:28:38;5.70;;;5.00;;
4756;SDS011;2392;52.578;13.426;2023-03-30T07:31:06;10.60;;;5.10;;
4756;SDS011;2392;52.578;13.426;2023-03-30T07:33:37;10.70;;;5.50;;
4756;SDS011;2392;52.578;13.426;2023-03-30T07:36:07;6.50;;;5.30;;
4756;SDS011;2392;52.578;13.426;2023-03-30T07:38:35;7.30;;;5.20;;
4756;SDS011;2392;52.578;13.426;2023-03-30T07:41:05;5.90;;;4.73;;
4756;SDS011;2392;52.578;13.426;2023-03-30T07:43:34;6.20;;;5.00;;
4756;SDS011;2392;52.578;13.426;2023-03-30T07:46:03;8.73;;;6.10;;
4756;SDS011;2392;52.578;13.426;2023-03-30T07:48:35;5.63;;;5.10;;
4756;SDS011;2392;52.578;13.426;2023-03-30T07:51:03;11.30;;;5.93;;
4756;SDS011;2392;52.578;13.426;2023-03-30T07:53:35;8.20;;;5.00;;
4756;SDS011;2392;52.578;13.426;2023-03-30T07:56:11;7.50;;;5.40;;
4756;SDS011;2392;52.578;13.426;2023-03-30T07:58:43;5.97;;;4.60;;
4756;SDS011;2392;52.578;13.426;2023-03-30T08:01:12;5.30;;;4.70;;
4756;SDS011;2392;52.578;13.426;2023-03-30T08:04:03;6.27;;;5.43;;
4756;SDS011;2392;52.578;13.426;2023-03-30T08:06:33;6.50;;;5.30;;
4756;SDS011;2392;52.578;13.426;2023-03-30T08:09:00;5.40;;;4.90;;
4756;SDS011;2392;52.578;13.426;2023-03-30T08:11:29;5.77;;;5.17;;
4756;SDS011;2392;52.578;13.426;2023-03-30T08:13:57;5.53;;;4.80;;
4756;SDS011;2392;52.578;13.426;2023-03-30T08:16:25;6.63;;;5.20;;
4756;SDS011;2392;52.578;13.426;2023-03-30T08:18:52;7.73;;;4.67;;
4756;SDS011;2392;52.578;13.426;2023-03-30T08:21:19;9.53;;;5.17;;
4756;SDS011;2392;52.578;13.426;2023-03-30T08:23:49;5.53;;;4.93;;
4756;SDS011;2392;52.578;13.426;2023-03-30T08:26:16;4.80;;;4.20;;
4756;SDS011;2392;52.578;13.426;2023-03-30T08:28:43;6.03;;;4.60;;
4756;SDS011;2392;52.578;13.426;2023-03-30T08:31:10;12.57;;;5.17;;
4756;SDS011;2392;52.578;13.426;2023-03-30T08:33:38;8.10;;;4.40;;
4756;SDS011;2392;52.578;13.426;2023-03-30T08:36:05;5.93;;;5.33;;
4756;SDS011;2392;52.578;13.426;2023-03-30T08:38:32;8.03;;;4.00;;
4756;SDS011;2392;52.578;13.426;2023-03-30T08:40:59;5.87;;;4.30;;
4756;SDS011;2392;52.578;13.426;2023-03-30T08:43:38;7.40;;;5.17;;
4756;SDS011;2392;52.578;13.426;2023-03-30T08:46:13;12.70;;;4.37;;
4756;SDS011;2392;52.578;13.426;2023-03-30T08:48:43;4.70;;;4.20;;
4756;SDS011;2392;52.578;13.426;2023-03-30T08:51:17;4.90;;;3.63;;
4756;SDS011;2392;52.578;13.426;2023-03-30T08:53:49;6.17;;;3.73;;
4756;SDS011;2392;52.578;13.426;2023-03-30T08:56:20;4.80;;;3.40;;
4756;SDS011;2392;52.578;13.426;2023-03-30T08:58:53;9.93;;;3.90;;
4756;SDS011;2392;52.578;13.426;2023-03-30T09:01:30;7.17;;;3.77;;
4756;SDS011;2392;52.578;13.426;2023-03-30T09:04:03;7.37;;;3.63;;
4756;SDS011;2392;52.578;13.426;2023-03-30T09:06:44;5.53;;;3.53;;
4756;SDS011;2392;52.578;13.426;2023-03-30T09:09:15;4.57;;;3.10;;
4756;SDS011;2392;52.578;13.426;2023-03-30T09:11:44;8.60;;;3.30;;
4756;SDS011;2392;52.578;13.426;2023-03-30T09:14:14;3.30;;;3.00;;
4756;SDS011;2392;52.578;13.426;2023-03-30T09:16:50;5.17;;;2.77;;
4756;SDS011;2392;52.578;13.426;2023-03-30T09:19:23;4.07;;;2.50;;
4756;SDS011;2392;52.578;13.426;2023-03-30T09:21:56;5.57;;;2.90;;
4756;SDS011;2392;52.578;13.426;2023-03-30T09:24:25;7.13;;;2.63;;
4756;SDS011;2392;52.578;13.426;2023-03-30T09:26:53;5.07;;;2.90;;
4756;SDS011;2392;52.578;13.426;2023-03-30T09:29:28;7.60;;;3.17;;
4756;SDS011;2392;52.578;13.426;2023-03-30T09:32:01;5.20;;;2.90;;
4756;SDS011;2392;52.578;13.426;2023-03-30T09:34:34;9.97;;;3.30;;
4756;SDS011;2392;52.578;13.426;2023-03-30T09:37:08;5.97;;;2.80;;
4756;SDS011;2392;52.578;13.426;2023-03-30T09:39:37;7.30;;;2.80;;
4756;SDS011;2392;52.578;13.426;2023-03-30T09:44:58;6.03;;;2.67;;
4756;SDS011;2392;52.578;13.426;2023-03-30T09:47:31;6.00;;;2.07;;
4756;SDS011;2392;52.578;13.426;2023-03-30T09:50:03;8.10;;;2.57;;
4756;SDS011;2392;52.578;13.426;2023-03-30T09:52:33;3.90;;;2.43;;
4756;SDS011;2392;52.578;13.426;2023-03-30T09:55:17;3.67;;;2.03;;
4756;SDS011;2392;52.578;13.426;2023-03-30T09:57:51;6.50;;;2.60;;
4756;SDS011;2392;52.578;13.426;2023-03-30T10:00:24;9.43;;;3.03;;
4756;SDS011;2392;52.578;13.426;2023-03-30T10:02:53;6.43;;;2.10;;
4756;SDS011;2392;52.578;13.426;2023-03-30T10:05:23;5.00;;;2.03;;
4756;SDS011;2392;52.578;13.426;2023-03-30T10:07:53;4.10;;;2.23;;
4756;SDS011;2392;52.578;13.426;2023-03-30T10:10:29;5.80;;;2.27;;
4756;SDS011;2392;52.578;13.426;2023-03-30T10:13:01;3.63;;;2.20;;
4756;SDS011;2392;52.578;13.426;2023-03-30T10:15:32;2.73;;;2.40;;
4756;SDS011;2392;52.578;13.426;2023-03-30T10:18:17;6.60;;;2.60;;
4756;SDS011;2392;52.578;13.426;2023-03-30T10:20:50;8.90;;;2.03;;
4756;SDS011;2392;52.578;13.426;2023-03-30T10:23:19;2.90;;;2.20;;
4756;SDS011;2392;52.578;13.426;2023-03-30T10:25:48;5.13;;;2.80;;
4756;SDS011;2392;52.578;13.426;2023-03-30T10:28:17;6.90;;;2.47;;
4756;SDS011;2392;52.578;13.426;2023-03-30T10:30:49;6.77;;;2.13;;
4756;SDS011;2392;52.578;13.426;2023-03-30T10:33:17;7.47;;;2.10;;
4756;SDS011;2392;52.578;13.426;2023-03-30T10:35:46;7.70;;;2.70;;
4756;SDS011;2392;52.578;13.426;2023-03-30T10:38:18;8.27;;;2.97;;
4756;SDS011;2392;52.578;13.426;2023-03-30T10:40:46;5.57;;;2.40;;
4756;SDS011;2392;52.578;13.426;2023-03-30T10:43:16;10.67;;;2.70;;
4756;SDS011;2392;52.578;13.426;2023-03-30T10:45:48;9.93;;;2.50;;
4756;SDS011;2392;52.578;13.426;2023-03-30T10:48:20;5.10;;;2.83;;
4756;SDS011;2392;52.578;13.426;2023-03-30T10:50:54;5.50;;;2.93;;
4756;SDS011;2392;52.578;13.426;2023-03-30T10:53:34;5.03;;;3.00;;
4756;SDS011;2392;52.578;13.426;2023-03-30T10:56:11;6.10;;;2.80;;
4756;SDS011;2392;52.578;13.426;2023-03-30T11:01:45;5.50;;;2.67;;
4756;SDS011;2392;52.578;13.426;2023-03-30T11:04:20;7.47;;;3.40;;
4756;SDS011;2392;52.578;13.426;2023-03-30T11:06:52;9.10;;;3.40;;
4756;SDS011;2392;52.578;13.426;2023-03-30T11:09:24;9.47;;;3.43;;
4756;SDS011;2392;52.578;13.426;2023-03-30T11:11:57;5.30;;;3.83;;
4756;SDS011;2392;52.578;13.426;2023-03-30T11:14:33;9.77;;;3.50;;
4756;SDS011;2392;52.578;13.426;2023-03-30T11:17:07;10.23;;;4.17;;
4756;SDS011;2392;52.578;13.426;2023-03-30T11:19:38;9.13;;;3.50;;
4756;SDS011;2392;52.578;13.426;2023-03-30T11:22:10;12.23;;;3.60;;
4756;SDS011;2392;52.578;13.426;2023-03-30T11:24:46;9.23;;;3.10;;
4756;SDS011;2392;52.578;13.426;2023-03-30T11:27:16;7.20;;;2.80;;
4756;SDS011;2392;52.578;13.426;2023-03-30T11:29:48;9.73;;;2.93;;
4756;SDS011;2392;52.578;13.426;2023-03-30T11:32:23;9.63;;;3.10;;
4756;SDS011;2392;52.578;13.426;2023-03-30T11:34:58;6.70;;;2.57;;
4756;SDS011;2392;52.578;13.426;2023-03-30T11:37:31;4.60;;;2.40;;
4756;SDS011;2392;52.578;13.426;2023-03-30T11:40:03;7.73;;;2.67;;
4756;SDS011;2392;52.578;13.426;2023-03-30T11:42:41;6.53;;;3.30;;
4756;SDS011;2392;52.578;13.426;2023-03-30T11:45:15;6.10;;;3.00;;
4756;SDS011;2392;52.578;13.426;2023-03-30T11:47:55;7.00;;;3.20;;
4756;SDS011;2392;52.578;13.426;2023-03-30T11:50:35;3.97;;;2.60;;
4756;SDS011;2392;52.578;13.426;2023-03-30T11:53:15;7.23;;;3.27;;
4756;SDS011;2392;52.578;13.426;2023-03-30T11:56:05;8.67;;;2.80;;
4756;SDS011;2392;52.578;13.426;2023-03-30T11:58:35;5.23;;;2.63;;
4756;SDS011;2392;52.578;13.426;2023-03-30T12:01:08;11.57;;;3.17;;
4756;SDS011;2392;52.578;13.426;2023-03-30T12:04:03;8.00;;;3.40;;
4756;SDS011;2392;52.578;13.426;2023-03-30T12:06:33;6.50;;;3.60;;
4756;SDS011;2392;52.578;13.426;2023-03-30T12:09:23;7.80;;;3.37;;
4756;SDS011;2392;52.578;13.426;2023-03-30T12:12:01;6.10;;;3.23;;
4756;SDS011;2392;52.578;13.426;2023-03-30T12:14:38;9.07;;;3.30;;
4756;SDS011;2392;52.578;13.426;2023-03-30T12:17:37;4.60;;;2.63;;
4756;SDS011;2392;52.578;13.426;2023-03-30T12:20:14;7.27;;;3.40;;
4756;SDS011;2392;52.578;13.426;2023-03-30T12:22:51;6.83;;;2.83;;
4756;SDS011;2392;52.578;13.426;2023-03-30T12:25:27;6.03;;;3.07;;
4756;SDS011;2392;52.578;13.426;2023-03-30T12:28:10;5.80;;;3.10;;
4756;SDS011;2392;52.578;13.426;2023-03-30T12:30:43;7.83;;;3.73;;
4756;SDS011;2392;52.578;13.426;2023-03-30T12:33:19;5.73;;;2.77;;
4756;SDS011;2392;52.578;13.426;2023-03-30T12:35:53;12.37;;;3.20;;
4756;SDS011;2392;52.578;13.426;2023-03-30T12:38:23;4.27;;;2.77;;
4756;SDS011;2392;52.578;13.426;2023-03-30T12:41:04;8.53;;;2.87;;
4756;SDS011;2392;52.578;13.426;2023-03-30T12:43:58;5.43;;;2.70;;
4756;SDS011;2392;52.578;13.426;2023-03-30T12:46:39;5.17;;;3.40;;
4756;SDS011;2392;52.578;13.426;2023-03-30T12:49:15;5.60;;;3.10;;
4756;SDS011;2392;52.578;13.426;2023-03-30T12:51:57;3.73;;;2.87;;
4756;SDS011;2392;52.578;13.426;2023-03-30T12:54:53;5.90;;;2.70;;
4756;SDS011;2392;52.578;13.426;2023-03-30T12:57:40;8.50;;;3.10;;
4756;SDS011;2392;52.578;13.426;2023-03-30T13:03:29;7.57;;;3.10;;
4756;SDS011;2392;52.578;13.426;2023-03-30T13:06:06;5.40;;;2.90;;
4756;SDS011;2392;52.578;13.426;2023-03-30T13:08:42;6.40;;;2.80;;
4756;SDS011;2392;52.578;13.426;2023-03-30T13:11:13;8.23;;;3.23;;
4756;SDS011;2392;52.578;13.426;2023-03-30T13:13:49;8.40;;;2.80;;
4756;SDS011;2392;52.578;13.426;2023-03-30T13:19:27;7.50;;;3.10;;
4756;SDS011;2392;52.578;13.426;2023-03-30T13:22:17;7.37;;;2.80;;
4756;SDS011;2392;52.578;13.426;2023-03-30T13:24:53;6.23;;;2.73;;
4756;SDS011;2392;52.578;13.426;2023-03-30T13:27:25;5.90;;;2.50;;
4756;SDS011;2392;52.578;13.426;2023-03-30T13:29:55;4.40;;;2.30;;
4756;SDS011;2392;52.578;13.426;2023-03-30T13:32:36;8.80;;;2.90;;
4756;SDS011;2392;52.578;13.426;2023-03-30T13:35:29;7.60;;;2.83;;
4756;SDS011;2392;52.578;13.426;2023-03-30T13:38:06;3.67;;;2.47;;
4756;SDS011;2392;52.578;13.426;2023-03-30T13:40:54;9.93;;;3.60;;
4756;SDS011;2392;52.578;13.426;2023-03-30T13:43:35;5.93;;;2.40;;
4756;SDS011;2392;52.578;13.426;2023-03-30T13:46:14;8.17;;;3.40;;
4756;SDS011;2392;52.578;13.426;2023-03-30T13:49:03;5.53;;;2.00;;
4756;SDS011;2392;52.578;13.426;2023-03-30T13:51:39;5.80;;;1.20;;
4756;SDS011;2392;52.578;13.426;2023-03-30T13:54:10;14.80;;;2.67;;
4756;SDS011;2392;52.578;13.426;2023-03-30T13:56:40;4.00;;;1.63;;
4756;SDS011;2392;52.578;13.426;2023-03-30T13:59:12;2.10;;;1.77;;
4756;SDS011;2392;52.578;13.426;2023-03-30T14:01:43;1.43;;;1.23;;
4756;SDS011;2392;52.578;13.426;2023-03-30T14:04:14;5.20;;;2.47;;
4756;SDS011;2392;52.578;13.426;2023-03-30T14:06:44;4.90;;;2.03;;
4756;SDS011;2392;52.578;13.426;2023-03-30T14:09:18;3.27;;;1.70;;
4756;SDS011;2392;52.578;13.426;2023-03-30T14:11:47;6.87;;;2.10;;
4756;SDS011;2392;52.578;13.426;2023-03-30T14:14:16;2.70;;;2.50;;
4756;SDS011;2392;52.578;13.426;2023-03-30T14:16:48;4.40;;;3.57;;
4756;SDS011;2392;52.578;13.426;2023-03-30T14:19:18;4.23;;;3.20;;
4756;SDS011;2392;52.578;13.426;2023-03-30T14:21:50;8.33;;;2.93;;
4756;SDS011;2392;52.578;13.426;2023-03-30T14:24:25;10.40;;;2.80;;
4756;SDS011;2392;52.578;13.426;2023-03-30T14:26:56;3.27;;;2.97;;
4756;SDS011;2392;52.578;13.426;2023-03-30T14:29:26;5.27;;;4.13;;
4756;SDS011;2392;52.578;13.426;2023-03-30T14:31:58;9.33;;;3.43;;
4756;SDS011;2392;52.578;13.426;2023-03-30T14:34:27;9.20;;;5.67;;
4756;SDS011;2392;52.578;13.426;2023-03-30T14:36:59;9.53;;;6.23;;
4756;SDS011;2392;52.578;13.426;2023-03-30T14:39:28;8.60;;;5.47;;
4756;SDS011;2392;52.578;13.426;2023-03-30T14:41:57;11.60;;;5.60;;
4756;SDS011;2392;52.578;13.426;2023-03-30T14:44:33;7.80;;;4.80;;
4756;SDS011;2392;52.578;13.426;2023-03-30T14:47:04;8.20;;;4.07;;
4756;SDS011;2392;52.578;13.426;2023-03-30T14:49:32;4.90;;;4.30;;
4756;SDS011;2392;52.578;13.426;2023-03-30T14:52:03;4.97;;;4.30;;
4756;SDS011;2392;52.578;13.426;2023-03-30T14:54:35;6.10;;;4.50;;
4756;SDS011;2392;52.578;13.426;2023-03-30T14:57:04;5.47;;;4.50;;
4756;SDS011;2392;52.578;13.426;2023-03-30T14:59:33;9.50;;;6.00;;
4756;SDS011;2392;52.578;13.426;2023-03-30T15:02:08;8.63;;;4.27;;
4756;SDS011;2392;52.578;13.426;2023-03-30T15:04:44;6.10;;;4.57;;
4756;SDS011;2392;52.578;13.426;2023-03-30T15:07:13;8.57;;;5.13;;
4756;SDS011;2392;52.578;13.426;2023-03-30T15:09:42;7.57;;;5.40;;
4756;SDS011;2392;52.578;13.426;2023-03-30T15:12:10;6.67;;;4.73;;
4756;SDS011;2392;52.578;13.426;2023-03-30T15:14:45;9.63;;;5.83;;
4756;SDS011;2392;52.578;13.426;2023-03-30T15:17:15;12.93;;;6.00;;
4756;SDS011;2392;52.578;13.426;2023-03-30T15:19:45;14.93;;;6.97;;
4756;SDS011;2392;52.578;13.426;2023-03-30T15:22:18;8.80;;;6.40;;
4756;SDS011;2392;52.578;13.426;2023-03-30T15:24:52;10.70;;;6.07;;
4756;SDS011;2392;52.578;13.426;2023-03-30T15:27:21;9.53;;;5.93;;
4756;SDS011;2392;52.578;13.426;2023-03-30T15:29:49;11.33;;;6.60;;
4756;SDS011;2392;52.578;13.426;2023-03-30T15:32:17;8.70;;;5.83;;
4756;SDS011;2392;52.578;13.426;2023-03-30T15:34:59;6.27;;;5.10;;
4756;SDS011;2392;52.578;13.426;2023-03-30T15:37:32;8.23;;;5.30;;
4756;SDS011;2392;52.578;13.426;2023-03-30T15:40:00;10.10;;;4.47;;
4756;SDS011;2392;52.578;13.426;2023-03-30T15:42:30;5.03;;;4.37;;
4756;SDS011;2392;52.578;13.426;2023-03-30T15:45:02;8.57;;;4.07;;
4756;SDS011;2392;52.578;13.426;2023-03-30T15:47:34;5.77;;;3.83;;
4756;SDS011;2392;52.578;13.426;2023-03-30T15:50:01;4.07;;;3.70;;
4756;SDS011;2392;52.578;13.426;2023-03-30T15:52:30;3.73;;;3.30;;
4756;SDS011;2392;52.578;13.426;2023-03-30T15:55:01;5.43;;;3.37;;
4756;SDS011;2392;52.578;13.426;2023-03-30T15:57:33;7.23;;;3.40;;
4756;SDS011;2392;52.578;13.426;2023-03-30T16:00:03;3.77;;;3.20;;
4756;SDS011;2392;52.578;13.426;2023-03-30T16:02:36;5.03;;;3.27;;
4756;SDS011;2392;52.578;13.426;2023-03-30T16:05:05;3.63;;;2.63;;